Kenosha Regional Airport
KENW : now visible

Airfield :











YOU CAN JOIN US ON...

 
LOGIN :

Register | Disclaimer

   EN    FR    IT 

 









Legend :    VFR   Marginal VFR   IFR   Intensive IFR   Very Intensive IFR
Visi :
Ceiling :
>= 8 km
>= 3000ft
5 to 8 km
1000 to 3000 ft
1500m to 5 km
500 to 1000 ft
800 to 1500m
200 to 500 ft
< 800m
< 200 ft
Symbols :   Thunderstorms  Fog  Heavy snow  Heavy precipitations  Wind > 20 kt






- Airport Elevation : 742 ft


KENW - Kenosha Regional

CURRENT METAR :
  • 261653Z 35012G19KT 10SM BKN018 OVC028 M01/M06 A3007 RMK AO2 SLP192 T10111056

EXPIRED METARs :
  • 261553Z 36015G23KT 10SM BKN019 OVC037 M02/M06 A3007 RMK AO2 SLP193 T10171061
  • 261520Z 35016G22KT 10SM BKN019 OVC043 M02/M07 A3008 RMK AO2 T10171067
  • 261453Z 34013G20KT 3SM HZ FEW021 SCT026 OVC036 M02/M06 A3009 RMK AO2 SNB18E46 SLP197 P0000 60000 T10171061 50002

TAF KENW
Valid from the 26 at 15:00 until the 27 at 12:00 UTC


261504Z 2615/2712 36014G23KT P6SM SCT015 OVC030
TEMPO 2615/2616 3SM -SN
FM261600 35013G22KT P6SM SCT022 OVC030
TEMPO 2616/2620 6SM -SHSN BKN022
FM262000 36017G26KT P6SM VCSH OVC025
FM270200 33013G21KT P6SM BKN045
FM270500 32012KT P6SM BKN040



MET'MAP, your aeronautical weather chart ! - Copyright ORBIFLY December 2007 - Disclaimer

ORBIFLY MET'MAP TEAM :

Programming & Development : Alexandra Zaïnal
Concept & original design : Baudouin d'Aumeries
Assistance for programming : Marc-Olivier Méhu
Technical & hardware support : Manuel Goepfert

Contact : metmap@orbifly.com




SOURCES & CREDITS :

   NOAA       Earth
Advisory